Time;durP1;ratioP1;P1;durP2;ratioP2;P2;SDS_P1;SDS_P2;PMS_P1;PMS_P2;Temp;Humidity;BMP_temperature;BMP_pressure;BME280_temperature;BME280_humidity;BME280_pressure;Samples;Min_cycle;Max_cycle;Signal;HPM_P1;HPM_P2
2022/11/26 05:26:50;;;;;;;16.88;2.83;;;14.60;69.40;;;;;;4999921;24;20100;-74
2022/11/26 05:30:38;;;;;;;18.08;3.20;;;14.60;69.50;;;;;;4753912;30;20060;-74
2022/11/26 05:33:57;;;;;;;13.10;3.53;;;14.60;69.70;;;;;;4769954;30;20455;-75
2022/11/26 05:36:32;;;;;;;15.43;3.00;;;14.70;70.00;;;;;;4743279;30;20108;-74
2022/11/26 05:38:58;;;;;;;12.30;2.88;;;14.80;69.80;;;;;;4753052;30;20125;-74
2022/11/26 05:41:24;;;;;;;15.18;3.50;;;14.90;69.80;;;;;;4755397;30;20040;-75
2022/11/26 05:44:27;;;;;;;18.58;3.15;;;15.10;69.70;;;;;;4753793;30;20472;-76
2022/11/26 05:47:19;;;;;;;19.50;3.45;;;15.20;69.70;;;;;;4782959;29;20086;-77
2022/11/26 05:49:55;;;;;;;14.75;3.00;;;15.20;68.90;;;;;;4754146;30;20425;-75
2022/11/26 05:52:58;;;;;;;14.70;2.80;;;15.30;69.30;;;;;;4738735;30;20044;-74
2022/11/26 05:55:24;;;;;;;15.20;2.83;;;15.30;69.40;;;;;;4737958;30;20048;-74
2022/11/26 05:58:02;;;;;;;23.20;3.95;;;15.30;69.40;;;;;;4754248;30;20062;-77
2022/11/26 06:00:31;;;;;;;23.95;3.33;;;14.90;69.40;;;;;;4754141;30;20047;-75
2022/11/26 06:02:57;;;;;;;24.98;5.03;;;14.90;69.80;;;;;;4753596;30;20048;-74
2022/11/26 06:05:22;;;;;;;14.93;3.17;;;14.90;69.90;;;;;;4753427;30;20057;-73
2022/11/26 06:07:48;;;;;;;19.05;3.83;;;14.90;69.80;;;;;;4754710;30;20455;-71
2022/11/26 06:10:14;;;;;;;14.85;3.33;;;14.90;69.30;;;;;;4754203;30;20056;-72
2022/11/26 06:12:40;;;;;;;10.48;2.95;;;14.90;68.60;;;;;;4752511;30;20122;-72
2022/11/26 06:15:06;;;;;;;14.98;3.42;;;14.90;68.00;;;;;;4754313;30;20048;-76
2022/11/26 06:17:32;;;;;;;14.35;3.45;;;14.80;67.30;;;;;;4752969;30;20059;-77
2022/11/26 06:19:57;;;;;;;11.85;3.03;;;14.80;66.70;;;;;;4754117;30;20052;-76
2022/11/26 06:22:23;;;;;;;14.18;3.72;;;14.70;66.70;;;;;;4738801;30;20048;-76
2022/11/26 06:24:49;;;;;;;13.93;3.60;;;14.60;66.90;;;;;;4754379;30;20056;-75
2022/11/26 06:27:14;;;;;;;16.00;4.00;;;14.60;67.10;;;;;;4753790;30;20541;-74
2022/11/26 06:29:40;;;;;;;14.10;3.65;;;14.60;68.20;;;;;;4753532;30;20103;-74
2022/11/26 06:49:34;;;;;;;10.95;2.92;;;14.40;67.90;;;;;;4821180;29;20382;-76
2022/11/26 06:52:02;;;;;;;11.13;3.33;;;14.20;67.80;;;;;;4825545;29;20142;-75
2022/11/26 06:54:28;;;;;;;8.98;3.05;;;14.20;68.00;;;;;;4809638;29;20038;-75
2022/11/26 06:56:56;;;;;;;11.80;2.88;;;14.20;68.40;;;;;;4825817;29;20069;-77
2022/11/26 06:59:22;;;;;;;10.32;3.10;;;14.20;68.60;;;;;;4824735;29;20057;-77
2022/11/26 07:02:14;;;;;;;13.50;3.03;;;14.20;68.40;;;;;;4809583;29;20042;-77
2022/11/26 07:08:41;;;;;;;12.55;3.50;;;14.20;67.50;;;;;;4822264;29;20106;-77
2022/11/26 07:11:34;;;;;;;15.80;3.47;;;14.10;67.60;;;;;;4828169;29;20488;-78
2022/11/26 07:14:59;;;;;;;13.45;3.85;;;14.10;67.70;;;;;;4799040;29;20042;-77
2022/11/26 07:20:45;;;;;;;16.23;3.60;;;14.00;67.80;;;;;;4790513;30;20050;-77
2022/11/26 07:23:19;;;;;;;11.07;3.35;;;14.00;67.90;;;;;;4820931;29;20054;-77
2022/11/26 07:25:47;;;;;;;17.92;3.55;;;14.00;68.00;;;;;;4805400;29;20470;-78
2022/11/26 07:28:22;;;;;;;15.95;3.08;;;14.00;68.10;;;;;;4826030;29;20038;-77
2022/11/26 07:30:50;;;;;;;11.25;2.60;;;14.00;68.30;;;;;;4818406;29;20073;-77
2022/11/26 07:33:16;;;;;;;9.52;2.90;;;14.00;68.50;;;;;;4824873;29;20050;-74
2022/11/26 07:35:42;;;;;;;17.05;3.10;;;13.90;68.50;;;;;;4828989;29;20038;-76
2022/11/26 07:38:07;;;;;;;9.90;3.15;;;13.90;68.50;;;;;;4828625;29;20046;-76
2022/11/26 07:40:33;;;;;;;8.57;2.67;;;13.90;68.30;;;;;;4828436;29;20121;-76
2022/11/26 07:42:59;;;;;;;9.43;3.05;;;13.90;68.40;;;;;;4821049;29;20070;-77
2022/11/26 07:45:25;;;;;;;14.15;3.17;;;13.90;68.40;;;;;;4804787;29;20455;-75
2022/11/26 07:47:57;;;;;;;12.05;3.08;;;13.90;68.30;;;;;;4826584;29;20050;-78
2022/11/26 07:50:56;;;;;;;13.75;2.90;;;14.00;68.30;;;;;;4828661;29;20122;-76
2022/11/26 07:57:07;;;;;;;19.30;3.55;;;13.90;68.10;;;;;;4765412;30;20059;-75
2022/11/26 07:59:32;;;;;;;17.40;3.53;;;14.00;68.10;;;;;;4757768;30;20051;-76
2022/11/26 08:01:58;;;;;;;13.05;3.13;;;14.00;68.10;;;;;;4779295;29;20100;-76
2022/11/26 08:04:24;;;;;;;13.93;2.97;;;14.00;68.00;;;;;;4827209;29;20057;-77
2022/11/26 08:06:50;;;;;;;11.80;2.85;;;14.00;67.70;;;;;;4828066;29;20137;-76
2022/11/26 08:09:16;;;;;;;12.25;2.78;;;14.00;67.30;;;;;;4812110;29;20214;-77
2022/11/26 08:11:41;;;;;;;12.13;2.88;;;14.00;67.30;;;;;;4827183;29;20093;-75
2022/11/26 08:14:11;;;;;;;20.30;4.13;;;13.90;67.50;;;;;;4827909;29;20046;-76
2022/11/26 08:16:37;;;;;;;16.42;3.38;;;13.90;67.70;;;;;;4811785;29;20073;-77
2022/11/26 08:19:06;;;;;;;12.32;3.83;;;13.90;68.00;;;;;;4825687;29;20042;-80
2022/11/26 08:21:33;;;;;;;9.45;3.00;;;13.90;68.10;;;;;;4828072;29;20122;-78
2022/11/26 08:23:59;;;;;;;15.93;3.38;;;13.90;68.30;;;;;;4828340;29;20103;-79
2022/11/26 08:26:25;;;;;;;14.30;3.55;;;13.80;69.00;;;;;;4827722;29;20411;-80
2022/11/26 08:28:55;;;;;;;15.95;3.85;;;13.90;69.90;;;;;;4811820;29;20378;-76
2022/11/26 08:31:21;;;;;;;13.05;3.42;;;13.90;70.20;;;;;;4827858;29;20485;-74
2022/11/26 08:33:47;;;;;;;13.45;3.13;;;13.90;70.40;;;;;;4827903;29;20054;-78
2022/11/26 08:36:12;;;;;;;18.20;3.55;;;13.90;70.80;;;;;;4824384;29;20121;-77
2022/11/26 08:38:38;;;;;;;15.98;4.00;;;13.90;72.10;;;;;;4819535;29;20043;-79
2022/11/26 08:41:10;;;;;;;19.40;4.53;;;13.90;72.30;;;;;;4824177;29;20050;-78
2022/11/26 08:43:36;;;;;;;24.00;4.97;;;14.00;71.80;;;;;;4812027;29;20066;-78
2022/11/26 08:46:03;;;;;;;23.17;6.28;;;14.00;71.50;;;;;;4823052;29;20104;-75
2022/11/26 08:48:29;;;;;;;27.80;6.13;;;14.00;72.20;;;;;;4827515;29;20476;-74
2022/11/26 08:51:00;;;;;;;33.55;6.07;;;14.00;72.90;;;;;;4827006;29;20082;-74
2022/11/26 08:53:30;;;;;;;30.58;5.25;;;14.00;72.70;;;;;;4821813;29;20054;-78
2022/11/26 08:56:47;;;;;;;;;;;;;;;;;;;;;
2022/11/26 09:22:11;;;;;;;20.48;4.95;;;14.00;75.60;;;;;;4649904;30;20498;-79
2022/11/26 09:24:37;;;;;;;15.98;4.53;;;14.00;75.40;;;;;;4736424;30;20130;-76
2022/11/26 09:27:03;;;;;;;21.00;4.90;;;14.00;74.50;;;;;;4782367;29;20500;-77
2022/11/26 09:29:28;;;;;;;22.90;5.72;;;14.10;73.80;;;;;;4807822;29;20511;-79
2022/11/26 09:32:03;;;;;;;25.77;5.13;;;14.10;73.00;;;;;;4825705;29;20110;-77
2022/11/26 09:34:50;;;;;;;18.20;5.40;;;14.10;72.40;;;;;;4825685;29;20103;-79
2022/11/26 09:37:17;;;;;;;20.90;5.18;;;14.10;72.20;;;;;;4795331;29;20482;-78
2022/11/26 09:39:43;;;;;;;18.23;4.60;;;14.10;71.40;;;;;;4825596;29;20194;-78
2022/11/26 09:42:37;;;;;;;17.65;4.35;;;14.10;71.10;;;;;;4810310;29;20133;-80
2022/11/26 09:45:29;;;;;;;20.52;4.85;;;14.10;70.70;;;;;;4792435;29;20071;-77
2022/11/26 09:47:55;;;;;;;14.43;4.28;;;14.10;70.60;;;;;;4786602;30;20128;-79
2022/11/26 09:50:37;;;;;;;16.08;4.97;;;14.00;70.50;;;;;;4791089;29;20455;-81
2022/11/26 09:53:24;;;;;;;19.38;4.35;;;14.00;70.40;;;;;;4777643;29;20051;-78
2022/11/26 09:55:53;;;;;;;14.55;3.72;;;14.00;70.50;;;;;;4808293;29;20084;-78
2022/11/26 09:58:29;;;;;;;8.82;3.65;;;14.00;70.50;;;;;;4777499;29;20081;-77
2022/11/26 10:00:57;;;;;;;12.15;3.50;;;14.00;70.50;;;;;;4792177;29;20042;-77
2022/11/26 10:03:35;;;;;;;11.05;4.10;;;14.00;70.40;;;;;;4808158;29;20366;-79
2022/11/26 10:06:07;;;;;;;9.50;3.22;;;14.00;70.40;;;;;;4807757;29;20439;-79
2022/11/26 10:08:51;;;;;;;10.80;3.80;;;14.00;70.50;;;;;;4808058;29;20043;-77
2022/11/26 10:11:32;;;;;;;;;;;14.00;70.50;;;;;;4778244;29;20129;-80
2022/11/26 10:14:35;;;;;;;12.20;3.70;;;13.90;70.60;;;;;;4792219;29;19929;-78
2022/11/26 10:17:22;;;;;;;13.07;3.78;;;13.90;70.50;;;;;;4791863;29;20478;-79
2022/11/26 10:19:54;;;;;;;14.18;3.30;;;13.90;70.50;;;;;;4792042;29;20126;-79
2022/11/26 10:22:29;;;;;;;13.18;3.45;;;13.90;70.40;;;;;;4791701;29;20531;-79
2022/11/26 10:24:57;;;;;;;10.25;3.40;;;14.00;70.40;;;;;;4807613;29;20054;-79
2022/11/26 10:27:31;;;;;;;10.30;3.20;;;13.90;70.30;;;;;;4792171;29;20329;-78
2022/11/26 10:30:08;;;;;;;10.77;3.75;;;13.90;70.30;;;;;;4791927;29;20058;-78
2022/11/26 10:32:38;;;;;;;9.48;2.83;;;13.90;70.20;;;;;;4808676;29;20335;-79
2022/11/26 10:35:04;;;;;;;10.63;3.70;;;13.90;70.20;;;;;;4791823;29;20065;-78
2022/11/26 10:37:30;;;;;;;8.98;3.55;;;13.90;70.20;;;;;;4792255;29;20358;-80
2022/11/26 10:40:14;;;;;;;11.15;3.70;;;13.90;70.20;;;;;;4777359;29;20203;-77
2022/11/26 10:42:42;;;;;;;8.63;2.78;;;13.90;70.10;;;;;;4780319;29;20055;-79
2022/11/26 10:45:21;;;;;;;10.48;2.78;;;13.90;70.10;;;;;;4811373;29;20191;-78
2022/11/26 10:47:46;;;;;;;9.27;3.70;;;13.90;70.10;;;;;;4811945;29;20050;-79
2022/11/26 10:50:23;;;;;;;7.70;2.85;;;13.90;70.10;;;;;;4810609;29;20463;-77
2022/11/26 10:52:53;;;;;;;8.40;2.83;;;13.90;70.00;;;;;;4796020;29;20039;-78
2022/11/26 10:55:39;;;;;;;9.55;3.17;;;13.90;70.00;;;;;;4810545;29;20050;-79
2022/11/26 10:58:13;;;;;;;9.15;2.85;;;13.90;69.90;;;;;;4810618;29;20473;-81
2022/11/26 11:01:03;;;;;;;7.97;2.75;;;13.90;69.90;;;;;;4810252;29;20065;-77
2022/11/26 11:03:49;;;;;;;9.25;2.45;;;13.90;69.90;;;;;;4806323;29;20101;-78
2022/11/26 11:06:17;;;;;;;7.35;2.65;;;13.90;69.90;;;;;;4810905;29;20066;-79
2022/11/26 11:08:45;;;;;;;7.60;2.80;;;13.90;69.90;;;;;;4811440;29;20039;-78
2022/11/26 11:11:25;;;;;;;7.63;2.67;;;13.90;69.90;;;;;;4810177;29;20054;-80
2022/11/26 11:13:52;;;;;;;6.88;2.95;;;13.90;69.80;;;;;;4795339;29;20344;-80
2022/11/26 11:16:31;;;;;;;6.65;2.72;;;13.90;69.80;;;;;;4794958;29;20057;-78
2022/11/26 11:19:00;;;;;;;6.07;2.97;;;13.90;69.80;;;;;;4780903;29;20168;-79
2022/11/26 11:21:34;;;;;;;7.57;3.17;;;13.90;69.80;;;;;;4811251;29;20392;-78
2022/11/26 11:24:27;;;;;;;7.65;2.85;;;13.90;69.70;;;;;;4794867;29;20614;-81
2022/11/26 11:26:57;;;;;;;6.88;2.70;;;13.90;69.80;;;;;;4809261;29;20548;-79
2022/11/26 11:29:28;;;;;;;9.52;3.00;;;13.90;69.80;;;;;;4794658;29;20046;-78
2022/11/26 11:31:56;;;;;;;6.90;2.58;;;13.90;69.80;;;;;;4810653;29;20043;-78
2022/11/26 11:34:33;;;;;;;7.00;2.90;;;13.90;69.70;;;;;;4794948;29;20054;-78
2022/11/26 11:37:04;;;;;;;7.07;2.53;;;13.90;69.70;;;;;;4795024;29;20055;-78
2022/11/26 11:39:33;;;;;;;7.50;3.05;;;13.90;69.70;;;;;;4780045;29;20351;-80
2022/11/26 11:42:01;;;;;;;9.77;3.88;;;13.90;69.70;;;;;;4810912;29;20451;-78
2022/11/26 11:44:44;;;;;;;14.30;5.43;;;13.90;69.80;;;;;;4814996;29;20126;-77
2022/11/26 11:47:42;;;;;;;18.17;5.25;;;13.90;69.90;;;;;;4810459;29;20043;-77
2022/11/26 11:50:19;;;;;;;14.77;5.65;;;13.90;69.80;;;;;;4810422;29;20043;-79
2022/11/26 11:53:03;;;;;;;17.48;5.63;;;14.00;68.80;;;;;;4809172;29;20086;-72
2022/11/26 11:55:47;;;;;;;;;;;13.90;68.80;;;;;;4809075;29;20374;-80
2022/11/26 11:58:39;;;;;;;16.75;5.70;;;13.80;68.90;;;;;;4797512;29;20356;-81
2022/11/26 12:01:36;;;;;;;15.82;6.60;;;13.60;69.20;;;;;;4805571;29;20043;-81
2022/11/26 12:04:27;;;;;;;18.20;7.18;;;13.50;69.50;;;;;;4793191;29;20052;-80
2022/11/26 12:07:12;;;;;;;19.02;7.22;;;13.40;69.70;;;;;;4808950;29;20050;-79
2022/11/26 12:10:16;;;;;;;14.77;6.10;;;13.40;70.00;;;;;;4824105;29;20411;-78
2022/11/26 12:12:55;;;;;;;14.73;5.43;;;13.30;70.20;;;;;;4808334;29;20564;-80
2022/11/26 12:16:00;;;;;;;15.65;5.93;;;13.20;70.60;;;;;;4794074;29;20089;-80
2022/11/26 12:18:31;;;;;;;20.60;6.30;;;13.30;71.00;;;;;;4753602;30;20052;-81
2022/11/26 12:25:33;;;;;;;19.77;6.97;;;13.40;72.10;;;;;;4791451;29;20062;-78
2022/11/26 12:28:18;;;;;;;19.98;5.80;;;13.50;72.70;;;;;;4802499;29;20051;-79
2022/11/26 12:31:04;;;;;;;16.30;5.20;;;13.80;72.60;;;;;;4808381;29;20063;-80
2022/11/26 12:34:12;;;;;;;19.77;4.95;;;14.10;72.40;;;;;;4825058;29;20049;-78
2022/11/26 12:40:59;;;;;;;18.88;4.78;;;14.50;71.80;;;;;;4771421;30;20083;-79
2022/11/26 12:44:30;;;;;;;24.33;5.15;;;14.70;71.40;;;;;;4734056;30;20057;-79
2022/11/26 12:47:26;;;;;;;24.42;4.75;;;14.90;71.30;;;;;;4739695;30;20155;-78
2022/11/26 12:50:08;;;;;;;16.83;4.13;;;14.90;71.40;;;;;;4755723;30;20121;-80
2022/11/26 12:53:13;;;;;;;15.52;4.50;;;15.00;71.50;;;;;;4771169;30;20089;-77
2022/11/26 12:55:50;;;;;;;14.60;3.78;;;15.00;71.70;;;;;;4785782;29;20058;-81
2022/11/26 12:58:26;;;;;;;17.77;4.85;;;15.10;71.80;;;;;;4773089;30;20387;-77
2022/11/26 13:00:55;;;;;;;16.67;5.20;;;15.20;72.50;;;;;;4788874;30;20085;-78
2022/11/26 13:03:33;;;;;;;15.65;4.30;;;15.30;71.80;;;;;;4756533;29;20055;-78
2022/11/26 13:06:20;;;;;;;19.73;4.68;;;15.40;72.00;;;;;;4791151;29;20046;-75
2022/11/26 13:08:55;;;;;;;25.63;5.30;;;15.50;72.40;;;;;;4791322;29;20107;-75
2022/11/26 13:11:23;;;;;;;16.65;5.00;;;15.60;72.20;;;;;;4806701;29;20055;-73
2022/11/26 13:14:14;;;;;;;25.60;5.60;;;15.70;71.80;;;;;;4806876;29;20141;-78
2022/11/26 13:17:18;;;;;;;17.80;5.57;;;15.80;71.40;;;;;;4797628;29;20481;-75
2022/11/26 13:19:54;;;;;;;19.15;5.32;;;15.80;71.00;;;;;;4790844;29;20460;-76
2022/11/26 13:22:38;;;;;;;22.35;5.32;;;15.80;71.20;;;;;;4793332;29;20458;-76
2022/11/26 13:25:22;;;;;;;23.35;4.70;;;15.80;71.40;;;;;;4808911;29;20039;-77
2022/11/26 13:28:09;;;;;;;21.15;4.38;;;15.80;72.10;;;;;;4807796;29;20078;-76
2022/11/26 13:30:35;;;;;;;14.10;4.10;;;15.70;72.90;;;;;;4792825;29;20123;-77
2022/11/26 13:33:20;;;;;;;19.42;4.43;;;15.60;72.90;;;;;;4807713;29;20047;-78
2022/11/26 13:36:08;;;;;;;28.05;4.22;;;15.60;73.50;;;;;;4808590;29;20054;-77
2022/11/26 13:38:58;;;;;;;17.73;4.03;;;15.50;74.20;;;;;;4807667;29;20122;-79
2022/11/26 13:41:43;;;;;;;13.88;3.92;;;15.50;74.30;;;;;;4823001;29;20120;-80
2022/11/26 13:44:38;;;;;;;18.60;4.22;;;15.50;74.70;;;;;;4820144;29;20055;-79
2022/11/26 13:47:15;;;;;;;18.17;4.90;;;15.40;75.20;;;;;;4761141;29;20197;-76
2022/11/26 13:49:55;;;;;;;16.42;4.05;;;15.40;75.40;;;;;;4804204;29;20050;-76
2022/11/26 13:52:34;;;;;;;18.60;4.13;;;15.30;75.60;;;;;;4810585;29;20407;-79
2022/11/26 13:55:02;;;;;;;15.52;4.22;;;15.30;76.10;;;;;;4801099;29;20090;-76
2022/11/26 13:57:38;;;;;;;18.13;4.32;;;15.30;76.00;;;;;;4795993;29;20061;-73
2022/11/26 14:00:04;;;;;;;21.65;4.95;;;15.30;75.90;;;;;;4818341;29;20077;-74
2022/11/26 14:02:33;;;;;;;25.58;6.03;;;15.30;75.20;;;;;;4825329;29;20050;-74
2022/11/26 14:05:07;;;;;;;18.73;6.57;;;15.30;74.20;;;;;;4825020;29;20051;-75
2022/11/26 14:07:33;;;;;;;20.92;6.20;;;15.20;72.70;;;;;;4810058;29;20066;-75
2022/11/26 14:10:01;;;;;;;17.70;6.35;;;15.10;72.20;;;;;;4809937;29;20439;-76
2022/11/26 14:13:06;;;;;;;15.32;5.35;;;15.10;71.90;;;;;;4810212;29;20051;-74
2022/11/26 14:15:41;;;;;;;16.27;5.80;;;15.00;71.00;;;;;;4809906;29;20054;-75
2022/11/26 14:18:37;;;;;;;13.32;4.97;;;15.00;71.20;;;;;;4826408;29;20089;-75
2022/11/26 14:21:05;;;;;;;12.98;5.53;;;14.90;71.20;;;;;;4826052;29;20400;-77
2022/11/26 14:23:41;;;;;;;19.13;5.20;;;14.90;71.50;;;;;;4826456;29;20140;-75
2022/11/26 14:26:17;;;;;;;14.05;5.38;;;14.80;71.40;;;;;;4825368;29;20065;-75
2022/11/26 14:28:43;;;;;;;16.80;4.88;;;14.80;71.40;;;;;;4794872;29;20108;-77
2022/11/26 14:31:24;;;;;;;10.63;4.80;;;14.80;71.60;;;;;;4826586;29;20362;-76
2022/11/26 14:33:54;;;;;;;11.57;5.38;;;14.80;71.60;;;;;;4809906;29;20071;-72
2022/11/26 14:36:28;;;;;;;18.65;6.20;;;14.70;71.70;;;;;;4808977;29;20066;-75
2022/11/26 14:39:14;;;;;;;21.08;6.00;;;14.70;71.70;;;;;;4810076;29;20166;-76
2022/11/26 14:41:42;;;;;;;27.60;7.18;;;14.70;71.20;;;;;;4825966;29;20061;-74
2022/11/26 14:44:16;;;;;;;21.80;6.72;;;14.70;70.90;;;;;;4810159;29;20986;-75
2022/11/26 14:46:47;;;;;;;;;;;14.70;70.80;;;;;;4825900;29;20064;-77
2022/11/26 14:49:34;;;;;;;15.43;5.93;;;14.70;70.50;;;;;;4826063;29;19936;-74
2022/11/26 14:52:05;;;;;;;16.98;5.93;;;14.60;70.30;;;;;;4824151;29;20082;-75
2022/11/26 14:55:43;;;;;;;19.30;6.78;;;14.60;69.60;;;;;;5133637;27;20396;-79
2022/11/26 14:58:39;;;;;;;20.13;5.85;;;14.60;69.90;;;;;;5078124;28;20113;-79
2022/11/26 15:01:31;;;;;;;15.65;6.40;;;14.60;70.00;;;;;;5093300;28;20110;-79
2022/11/26 15:04:22;;;;;;;12.10;5.70;;;14.60;70.10;;;;;;5094128;28;20039;-78
2022/11/26 15:06:50;;;;;;;12.82;4.93;;;14.50;70.10;;;;;;5076997;28;20099;-79
2022/11/26 15:09:23;;;;;;;15.80;5.13;;;14.60;70.40;;;;;;5091514;28;20054;-79
2022/11/26 15:12:10;;;;;;;14.93;4.93;;;14.60;70.40;;;;;;5093681;28;20568;-79
2022/11/26 15:14:55;;;;;;;24.48;6.13;;;14.50;69.30;;;;;;5076126;28;20035;-81
2022/11/26 15:17:23;;;;;;;;;;;14.00;70.30;;;;;;5075950;28;20055;-80
2022/11/26 15:19:51;;;;;;;14.95;4.72;;;13.80;70.60;;;;;;5077622;28;19969;-81
2022/11/26 15:22:55;;;;;;;12.57;5.03;;;13.70;71.20;;;;;;5112465;28;20043;-80
2022/11/26 15:25:33;;;;;;;12.55;4.57;;;13.60;71.50;;;;;;5079159;28;20103;-81
2022/11/26 15:28:03;;;;;;;10.63;4.25;;;13.60;72.00;;;;;;5077603;28;20164;-79
2022/11/26 15:45:42;;;;;;;20.95;4.43;;;14.40;72.10;;;;;;4990102;28;20050;-81
2022/11/26 15:48:36;;;;;;;18.63;4.68;;;14.50;72.00;;;;;;4992050;28;20049;-79
2022/11/26 15:51:58;;;;;;;17.42;4.53;;;14.60;72.10;;;;;;4961173;28;20049;-79
2022/11/26 15:58:45;;;;;;;14.95;4.22;;;14.90;72.50;;;;;;4991837;28;20073;-78
2022/11/26 16:01:37;;;;;;;12.02;3.33;;;14.90;72.90;;;;;;4975981;28;20446;-82
2022/11/26 16:11:29;;;;;;;12.70;3.20;;;15.20;73.00;;;;;;4978614;28;20089;-77
2022/11/26 16:14:18;;;;;;;14.23;3.47;;;15.30;72.70;;;;;;4956270;28;20047;-78
2022/11/26 16:17:09;;;;;;;19.45;3.55;;;15.40;72.80;;;;;;4962691;28;20458;-77
2022/11/26 16:19:37;;;;;;;16.25;2.90;;;15.40;73.00;;;;;;4945622;28;20046;-80
2022/11/26 16:22:04;;;;;;;20.23;3.92;;;15.50;72.90;;;;;;4978636;28;20046;-76
2022/11/26 16:24:39;;;;;;;16.80;3.47;;;15.50;72.90;;;;;;4961496;28;20126;-79
2022/11/26 16:27:22;;;;;;;16.02;3.83;;;15.50;73.00;;;;;;4978907;28;20043;-78
2022/11/26 16:29:48;;;;;;;15.80;4.38;;;15.50;73.00;;;;;;4960640;28;20050;-78
2022/11/26 16:32:15;;;;;;;18.23;3.05;;;15.50;72.90;;;;;;4978553;28;20477;-78
2022/11/26 16:34:42;;;;;;;17.63;3.58;;;15.60;72.90;;;;;;4961649;28;20039;-79
2022/11/26 16:37:24;;;;;;;19.17;3.28;;;15.70;72.90;;;;;;4945631;28;20483;-76
2022/11/26 16:39:58;;;;;;;19.85;4.47;;;15.80;72.80;;;;;;4945604;28;20528;-79
2022/11/26 16:42:24;;;;;;;20.85;3.47;;;15.90;72.60;;;;;;4961981;28;20453;-76
2022/11/26 16:44:49;;;;;;;16.15;4.15;;;16.00;72.40;;;;;;4961036;28;20094;-79
2022/11/26 16:47:26;;;;;;;25.02;4.18;;;16.10;72.30;;;;;;4945151;28;20043;-77
2022/11/26 16:49:52;;;;;;;20.90;3.47;;;16.20;72.20;;;;;;4945622;28;20047;-77
2022/11/26 16:52:19;;;;;;;18.83;3.78;;;16.20;72.20;;;;;;4961346;28;20449;-79
2022/11/26 16:54:45;;;;;;;16.15;3.70;;;16.30;72.20;;;;;;4978727;28;20526;-79
2022/11/26 16:57:17;;;;;;;19.05;3.72;;;16.30;72.20;;;;;;4960750;28;20039;-80
2022/11/26 16:59:54;;;;;;;26.75;4.10;;;16.40;72.30;;;;;;4961037;28;20476;-77
2022/11/26 17:02:34;;;;;;;18.20;3.45;;;16.40;72.10;;;;;;4961684;28;20051;-80
2022/11/26 17:05:06;;;;;;;19.70;3.50;;;16.30;68.60;;;;;;4961692;28;20365;-78
2022/11/26 17:07:45;;;;;;;22.13;4.47;;;16.30;71.80;;;;;;4960867;28;20034;-78
2022/11/26 17:10:21;;;;;;;15.85;3.92;;;16.30;71.80;;;;;;4961088;28;20049;-79
2022/11/26 17:12:50;;;;;;;13.77;3.92;;;16.20;71.80;;;;;;4961060;28;20066;-73
2022/11/26 17:15:16;;;;;;;16.58;4.05;;;16.20;72.10;;;;;;4960692;28;20053;-75
2022/11/26 17:17:42;;;;;;;21.30;3.85;;;16.10;72.10;;;;;;4977138;28;20125;-76
2022/11/26 17:20:17;;;;;;;20.17;4.45;;;16.00;72.30;;;;;;4960799;28;20458;-77
2022/11/26 17:22:44;;;;;;;16.15;4.22;;;16.00;72.10;;;;;;4977576;28;20059;-77
2022/11/26 17:25:11;;;;;;;17.35;3.30;;;15.90;72.20;;;;;;4977649;28;20042;-76
2022/11/26 17:27:37;;;;;;;15.38;3.38;;;15.90;72.40;;;;;;4977302;28;20057;-76
2022/11/26 17:30:05;;;;;;;13.18;4.15;;;15.90;72.70;;;;;;4977433;28;20125;-77
2022/11/26 17:32:30;;;;;;;15.57;3.03;;;15.90;72.70;;;;;;4977409;28;20074;-74
2022/11/26 17:34:56;;;;;;;14.65;3.97;;;15.80;72.40;;;;;;4977196;28;20046;-75
2022/11/26 17:37:27;;;;;;;21.00;3.85;;;15.80;72.60;;;;;;4961023;28;20121;-73
2022/11/26 17:39:54;;;;;;;21.38;4.43;;;15.80;72.70;;;;;;4977581;28;20054;-76
2022/11/26 17:42:23;;;;;;;24.52;3.95;;;15.70;72.60;;;;;;4960731;28;20450;-78
2022/11/26 17:44:50;;;;;;;13.73;2.83;;;15.70;72.50;;;;;;4976911;28;20078;-75
2022/11/26 17:47:22;;;;;;;17.63;3.28;;;15.60;72.50;;;;;;4977143;28;20043;-77
2022/11/26 17:49:48;;;;;;;11.30;3.10;;;15.60;72.60;;;;;;4977338;28;20350;-76
2022/11/26 17:52:15;;;;;;;13.30;3.20;;;15.50;72.50;;;;;;4960280;28;20054;-77
2022/11/26 17:54:41;;;;;;;15.10;2.83;;;15.60;72.50;;;;;;4977173;28;20035;-75
2022/11/26 17:57:09;;;;;;;11.65;3.30;;;15.50;72.40;;;;;;4976288;28;20046;-75
2022/11/26 17:59:35;;;;;;;21.10;3.92;;;15.50;72.40;;;;;;4976569;28;20046;-77
2022/11/26 18:02:01;;;;;;;12.95;3.15;;;15.50;72.40;;;;;;4976557;28;20047;-77
2022/11/26 18:04:28;;;;;;;13.55;3.33;;;15.40;72.30;;;;;;4977247;28;20097;-76
2022/11/26 18:07:12;;;;;;;18.02;3.00;;;15.40;72.90;;;;;;4976760;28;20058;-75
2022/11/26 18:09:39;;;;;;;11.00;2.72;;;15.40;72.20;;;;;;4977626;28;20039;-76
2022/11/26 18:12:06;;;;;;;7.75;3.00;;;15.30;72.20;;;;;;4976774;28;20496;-76
2022/11/26 18:14:34;;;;;;;9.73;2.50;;;15.30;72.20;;;;;;4976531;28;20510;-76
2022/11/26 18:17:01;;;;;;;7.97;2.35;;;15.30;72.20;;;;;;4977042;28;20051;-74
2022/11/26 18:19:27;;;;;;;9.70;2.97;;;15.20;72.20;;;;;;4976850;28;20057;-77
2022/11/26 18:21:53;;;;;;;7.60;2.33;;;15.20;72.20;;;;;;4976858;28;20043;-77
2022/11/26 18:24:19;;;;;;;9.30;3.03;;;15.20;72.20;;;;;;4976493;28;20124;-76
2022/11/26 18:26:45;;;;;;;13.10;2.97;;;15.20;72.10;;;;;;4959936;28;20332;-75
2022/11/26 18:29:11;;;;;;;11.02;3.67;;;15.10;72.10;;;;;;4959103;28;20058;-77
2022/11/26 18:31:37;;;;;;;17.35;4.55;;;15.20;72.20;;;;;;4959674;28;20051;-74
2022/11/26 18:34:03;;;;;;;13.68;5.50;;;15.10;71.90;;;;;;4976768;28;20047;-75
2022/11/26 18:36:32;;;;;;;11.85;5.18;;;15.20;71.20;;;;;;4959631;28;20053;-76
2022/11/26 18:38:57;;;;;;;14.57;5.70;;;15.20;70.70;;;;;;4976779;28;20064;-76
2022/11/26 18:41:23;;;;;;;15.20;6.75;;;15.20;70.20;;;;;;4959380;28;20054;-76
2022/11/26 20:21:31;;;;;;;9.85;5.25;;;14.60;70.90;;;;;;5619349;24;20058;-74
2022/11/26 20:23:59;;;;;;;16.67;6.85;;;14.60;70.00;;;;;;4858391;29;20054;-77
2022/11/26 20:26:33;;;;;;;14.55;6.07;;;14.60;67.00;;;;;;4848876;29;20067;-77
2022/11/26 20:29:03;;;;;;;13.82;5.15;;;14.50;66.00;;;;;;4848871;29;20078;-76
2022/11/26 20:31:29;;;;;;;16.23;5.82;;;14.30;66.00;;;;;;4864846;29;20057;-75
2022/11/26 20:33:55;;;;;;;11.98;5.05;;;14.10;66.60;;;;;;4864241;29;20050;-77
2022/11/26 20:36:22;;;;;;;13.38;5.97;;;13.90;67.70;;;;;;4864779;29;20500;-75
2022/11/26 20:38:56;;;;;;;12.43;5.57;;;13.90;69.10;;;;;;4865019;29;20049;-77
2022/11/26 20:41:25;;;;;;;12.15;5.15;;;13.90;70.50;;;;;;4848447;29;20053;-77
2022/11/26 20:43:51;;;;;;;9.90;3.95;;;13.90;71.30;;;;;;4865477;29;20327;-76
2022/11/26 20:46:17;;;;;;;13.70;4.78;;;13.90;72.20;;;;;;4864578;29;20057;-76
2022/11/26 20:48:44;;;;;;;12.95;5.35;;;14.00;72.60;;;;;;4864895;29;20436;-73
2022/11/26 20:51:12;;;;;;;9.63;4.15;;;14.00;72.70;;;;;;4864499;29;20081;-72
2022/11/26 20:53:39;;;;;;;12.20;4.30;;;14.00;72.80;;;;;;4864538;29;20335;-71
2022/11/26 20:56:06;;;;;;;12.55;3.97;;;14.00;73.60;;;;;;4864956;29;20053;-73
2022/11/26 20:58:34;;;;;;;13.38;3.72;;;14.00;73.40;;;;;;4864476;29;20437;-72
2022/11/26 21:01:00;;;;;;;9.57;4.10;;;14.00;74.20;;;;;;4864654;29;20049;-76
2022/11/26 21:03:27;;;;;;;14.00;4.32;;;14.00;74.30;;;;;;4864575;29;20057;-71
2022/11/26 21:05:59;;;;;;;12.20;4.20;;;14.00;74.50;;;;;;4864325;29;20045;-79
2022/11/26 21:08:25;;;;;;;10.68;4.13;;;14.00;74.60;;;;;;4848321;29;20049;-75
2022/11/26 21:10:51;;;;;;;11.55;4.10;;;14.00;74.40;;;;;;4863921;29;20061;-74
2022/11/26 21:13:18;;;;;;;10.68;4.55;;;14.00;74.60;;;;;;4848398;29;20061;-76
2022/11/26 21:15:47;;;;;;;10.13;4.70;;;14.00;74.70;;;;;;4864411;29;20077;-71
2022/11/26 21:18:14;;;;;;;9.68;3.78;;;14.00;74.90;;;;;;4864186;29;20049;-72
2022/11/26 21:20:41;;;;;;;9.98;3.70;;;14.00;74.80;;;;;;4864380;29;20076;-73
2022/11/26 21:23:08;;;;;;;10.57;2.97;;;14.00;74.80;;;;;;4876915;29;20092;-73
2022/11/26 21:25:38;;;;;;;11.25;3.53;;;14.00;74.70;;;;;;4882976;29;20360;-72
2022/11/26 21:28:05;;;;;;;8.80;3.40;;;14.00;74.80;;;;;;4882450;29;20128;-72
2022/11/26 21:30:31;;;;;;;9.45;3.80;;;13.90;74.60;;;;;;4866607;29;20056;-73
2022/11/26 21:32:57;;;;;;;9.38;3.92;;;14.00;74.70;;;;;;4866987;29;20128;-71
2022/11/26 21:35:23;;;;;;;9.57;3.40;;;13.90;74.70;;;;;;4882296;29;20228;-73
2022/11/26 21:37:48;;;;;;;10.77;3.63;;;13.90;74.90;;;;;;4881982;29;20057;-72
2022/11/26 21:40:14;;;;;;;7.90;2.75;;;13.90;75.00;;;;;;4881470;29;20049;-72
2022/11/26 21:42:40;;;;;;;9.93;3.50;;;13.90;75.10;;;;;;4881311;29;20045;-71
2022/11/26 21:45:07;;;;;;;9.95;3.85;;;13.90;75.10;;;;;;4882652;29;20352;-72
2022/11/26 21:47:33;;;;;;;8.98;3.60;;;13.90;75.20;;;;;;4882150;29;20445;-75
2022/11/26 21:49:58;;;;;;;7.30;3.20;;;13.90;75.20;;;;;;4882498;29;20056;-74